Latest Coastal Weather Observations for Sunshine Coast Airport

IDQ60701

Issued at 4:32 pm EST Friday 21 September 2018 (issued every 10 minutes, with the page automatically refreshed every 10 minutes)

About coastal observations | Map of coastal stations | Coastal observations for QLD | Marine services | Other Formats
Station Details ID: 040861 Name: SUNSHINE COAST AIRPORT Lat: -26.60 Lon: 153.09 Height: 3.3 m
Data from the previous 72 hours. | See also: Recent months at Sunshine Coast Airport
Date/Time
EST
Wind Sea
Height
m
Swell Vis
km
Cloud Weather Temp
°C
Press
hPa
Rain since
9am
mm
Dir  Spd
kts
Gust
kts
Height
m
Period
s
Dir
21/04:30pm SE 14 19 - - - - 10 Partly cloudy - 20.5 1023.7 0.0
21/04:00pm SE 15 20 - - - - 10 Partly cloudy - 20.8 1023.5 0.0
21/03:30pm SE 16 22 - - - - 10 Partly cloudy - 21.1 1023.4 0.0
21/03:00pm SE 15 20 - - - - 10 Mostly clear - 21.5 1023.5 0.0
21/02:30pm SE 15 20 - - - - 10 Partly cloudy - 21.6 1023.4 0.0
21/02:00pm SSE 17 21 - - - - 10 Partly cloudy - 21.0 1023.6 0.0
21/01:30pm SE 16 21 - - - - 10 Partly cloudy - 21.5 1023.7 0.0
21/01:00pm SSE 15 19 - - - - 10 Partly cloudy - 20.9 1023.9 0.0
21/12:30pm SSE 17 22 - - - - 10 Partly cloudy - 21.8 1024.1 0.0
21/12:00pm SSE 16 23 - - - - 10 Cloudy - 21.4 1024.3 0.0
21/11:30am SSE 17 24 - - - - 10 Partly cloudy - 20.6 1024.7 0.0
21/11:00am SSE 18 26 - - - - 10 - - 21.4 1024.9 0.0
21/10:30am S 17 23 - - - - 10 - - 20.8 1025.0 0.0
21/10:00am SSE 17 23 - - - - 10 - - 20.3 1025.0 0.0
21/09:30am S 17 23 - - - - 10 - - 20.2 1024.7 0.0
21/09:00am S 17 21 - - - - 10 - - 19.4 1024.8 0.0
21/08:30am S 17 22 - - - - 10 - - 18.5 1024.5 0.0
21/08:00am S 15 24 - - - - 10 - - 17.9 1024.1 0.0
21/07:30am SSW 12 17 - - - - 10 Partly cloudy - 17.1 1023.7 0.0
21/07:00am SSW 13 17 - - - - 10 Partly cloudy - 15.9 1023.5 0.0
21/06:30am SSW 12 17 - - - - 10 Partly cloudy - 15.0 1023.1 0.0
21/06:00am SSW 11 14 - - - - 10 Mostly clear - 14.6 1022.5 0.0
21/05:30am SSW 13 18 - - - - 10 Partly cloudy - 14.6 1022.2 0.0
21/05:00am SSW 11 15 - - - - 10 Partly cloudy - 14.7 1021.5 0.0
21/04:30am SSW 10 15 - - - - 10 - - 15.0 1021.1 0.0
21/04:00am S 13 18 - - - - 10 Partly cloudy - 15.4 1020.9 0.0
21/03:30am S 15 20 - - - - 10 Partly cloudy - 15.9 1020.7 0.0
21/03:00am S 16 24 - - - - 10 - - 16.1 1020.4 0.0
21/02:30am S 15 20 - - - - 10 Partly cloudy - 16.4 1020.3 0.0
21/02:00am S 15 20 - - - - 10 - - 16.5 1020.2 0.0
21/01:30am S 11 15 - - - - 10 - - 15.8 1020.2 0.0
21/01:00am S 11 13 - - - - 10 Partly cloudy - 15.8 1020.3 0.0
21/12:30am S 9 13 - - - - 10 - - 16.3 1020.2 0.0
21/12:00am SW 10 14 - - - - 10 Mostly clear - 17.2 1019.7 0.0
 
Date/Time
EST
Wind Sea
Height
m
Swell Vis
km
Cloud Weather Temp
°C
Press
hPa
Rain since
9am
mm
Dir  Spd
kts
Gust
kts
Height
m
Period
s
Dir
20/11:30pm SW 10 13 - - - - 10 - - 17.1 1019.5 0.0
20/11:00pm SW 9 11 - - - - 10 - - 16.5 1019.4 0.0
20/10:30pm SW 11 15 - - - - 10 - - 17.5 1019.3 0.0
20/10:00pm SW 10 15 - - - - 10 - - 18.5 1019.1 0.0
20/09:30pm SSW 9 13 - - - - 10 - - 18.8 1018.7 0.0
20/09:00pm SSW 8 12 - - - - 10 Mostly cloudy - 19.0 1018.6 0.0
20/08:30pm SW 6 8 - - - - 10 Partly cloudy - 18.7 1018.1 0.0
20/08:00pm SSW 6 7 - - - - 10 Cloudy - 19.1 1017.6 0.0
20/07:30pm S 6 8 - - - - 10 Cloudy - 19.5 1017.0 0.0
20/07:00pm SSE 7 8 - - - - 10 Cloudy - 20.1 1016.4 0.0
20/06:30pm SSE 7 9 - - - - 10 Partly cloudy - 20.6 1015.6 0.0
20/06:00pm SSE 7 10 - - - - 10 Cloudy - 20.9 1015.0 0.0
20/05:47pm SE 7 10 - - - - 10 Cloudy - 21.0 1014.6 0.0
20/05:30pm SE 8 11 - - - - 10 Cloudy - 21.1 1014.2 0.0
20/05:06pm SE 9 13 - - - - 10 Partly cloudy - 21.5 1013.8 0.0
20/05:00pm SE 10 12 - - - - 10 Partly cloudy - 21.6 1013.7 0.0
20/04:30pm SE 11 15 - - - - 10 - - 21.7 1013.2 0.0
20/04:00pm SE 11 15 - - - - 10 - - 22.0 1012.8 0.0
20/03:30pm SE 11 15 - - - - 10 - - 22.7 1012.5 0.0
20/03:00pm SE 13 17 - - - - 10 - - 23.1 1012.2 0.0
20/02:30pm SE 14 18 - - - - 10 - - 23.8 1012.1 0.0
20/02:00pm SE 11 15 - - - - 10 - - 25.2 1012.0 0.0
20/01:30pm ESE 11 15 - - - - 10 - - 25.6 1012.2 0.0
20/01:00pm E 11 13 - - - - 10 - - 25.8 1011.9 0.0
20/12:30pm NE 11 13 - - - - 10 - - 26.2 1011.9 0.0
20/12:00pm ENE 11 14 - - - - 10 - - 25.6 1012.3 0.0
20/11:30am E 9 13 - - - - 10 - - 26.1 1012.7 0.0
20/11:00am W 6 9 - - - - 10 - - 28.7 1012.9 0.0
20/10:30am WNW 9 16 - - - - 10 - - 27.4 1013.3 0.0
20/10:00am NW 9 13 - - - - 10 - - 26.3 1013.4 0.0
20/09:30am NW 10 14 - - - - 10 - - 25.4 1013.5 0.0
20/09:00am NNW 11 15 - - - - 10 - - 24.3 1013.5 0.0
20/08:30am NW 10 13 - - - - 10 - - 22.9 1013.9 0.0
20/08:00am NNW 8 13 - - - - 10 - - 21.4 1013.9 0.0
20/07:30am NNW 9 12 - - - - 10 - - 19.9 1013.9 0.0
20/07:00am NNW 10 13 - - - - 10 - - 18.8 1013.8 0.0
20/06:30am NNW 10 12 - - - - - - - 17.5 1013.9 0.0
20/06:00am NNW 9 13 - - - - - Mostly clear - 16.7 1013.6 0.0
20/05:30am NNW 9 12 - - - - - Cloudy - 16.9 1013.3 0.0
20/05:00am NW 9 11 - - - - - Partly cloudy - 16.8 1012.9 0.0
20/04:30am NNW 8 11 - - - - - Partly cloudy - 16.2 1012.6 0.0
20/04:00am N 8 11 - - - - - Partly cloudy - 15.9 1012.3 0.0
20/03:30am NNW 2 6 - - - - - - - 15.1 1012.9 0.0
20/03:00am NNW 6 7 - - - - - - - 15.0 1012.7 0.0
20/02:30am NNW 6 8 - - - - - - - 15.7 1012.5 0.0
20/02:00am N 6 7 - - - - - - - 15.2 1013.0 0.0
20/01:30am NNW 7 9 - - - - - - - 15.7 1013.1 0.0
20/01:00am NNW 7 9 - - - - - - - 16.1 1013.5 0.0
20/12:30am NNW 8 10 - - - - - - - 16.3 1013.7 0.0
20/12:00am NNW 7 9 - - - - 10 - - 15.8 1014.0 0.0
 
Date/Time
EST
Wind Sea
Height
m
Swell Vis
km
Cloud Weather Temp
°C
Press
hPa
Rain since
9am
mm
Dir  Spd
kts
Gust
kts
Height
m
Period
s
Dir
19/11:30pm N 7 9 - - - - 10 - - 16.2 1014.2 0.0
19/11:00pm NNW 7 10 - - - - 10 - - 16.7 1014.5 0.0
19/10:30pm NNW 10 12 - - - - 10 - - 17.5 1014.5 0.0
19/10:00pm N 8 11 - - - - 10 - - 16.7 1014.7 0.0
19/09:30pm NNW 9 12 - - - - 10 - - 17.2 1014.9 0.0
19/09:00pm NNW 7 8 - - - - 10 - - 17.0 1015.0 0.0
19/08:30pm NW 7 9 - - - - 10 - - 17.6 1015.1 0.0
19/08:00pm NNW 4 5 - - - - 10 - - 18.0 1014.8 0.0
19/07:30pm N 9 12 - - - - 10 - - 19.5 1014.6 0.0
19/07:00pm N 10 16 - - - - 10 - - 19.7 1014.4 0.0
19/06:30pm N 13 20 - - - - 10 - - 20.0 1014.2 0.0
19/06:00pm N 12 17 - - - - 10 - - 20.1 1014.0 0.0
19/05:30pm N 15 20 - - - - 10 - - 20.4 1013.9 0.0
19/05:00pm NNE 15 20 - - - - 10 - - 20.9 1013.6 0.0
19/04:30pm NNE 15 21 - - - - 10 - - 21.5 1013.2 0.0
19/04:00pm NNE 17 22 - - - - 10 - - 22.0 1013.0 0.0
19/03:30pm NNE 18 22 - - - - 10 - - 22.4 1013.2 0.0
19/03:00pm NNE 16 22 - - - - 10 - - 22.9 1013.4 0.0
19/02:30pm NNE 18 22 - - - - 10 - - 22.9 1013.7 0.0
19/02:00pm NNE 17 21 - - - - 10 - - 23.3 1014.2 0.0
19/01:30pm NNE 18 22 - - - - 10 - - 23.1 1014.8 0.0
19/01:00pm NNE 17 22 - - - - 10 - - 23.0 1015.4 0.0
19/12:30pm NNE 17 21 - - - - 10 - - 23.2 1015.9 0.0
19/12:00pm NE 16 21 - - - - 10 - - 23.0 1016.4 0.0
19/11:30am NNE 15 18 - - - - 10 - - 23.4 1016.8 0.0
19/11:00am NE 14 17 - - - - 10 - - 23.4 1017.3 0.0
19/10:30am NNE 14 16 - - - - 10 - - 23.4 1018.0 0.0
19/10:00am NNE 11 19 - - - - 10 - - 23.3 1018.2 0.0
19/09:30am N 12 16 - - - - 10 Partly cloudy - 22.7 1018.7 0.0
19/09:00am NNW 9 13 - - - - 10 Mostly clear - 22.6 1019.1 0.0
19/08:30am NW 6 9 - - - - 10 - - 21.2 1019.3 0.0
19/08:00am WNW 5 7 - - - - 10 Partly cloudy - 18.8 1019.4 0.0
19/07:30am WNW 5 7 - - - - 10 Partly cloudy - 17.3 1019.5 0.0
19/07:00am WNW 7 8 - - - - 10 Partly cloudy - 14.4 1019.2 0.0
19/06:30am W 5 7 - - - - 10 Partly cloudy - 12.2 1018.8 0.0
19/06:00am W 4 5 - - - - 10 - - 10.1 1018.4 0.0
19/05:30am W 4 5 - - - - 10 - - 10.0 1018.2 0.0
19/05:00am W 4 4 - - - - 10 - - 10.7 1018.0 0.0
19/04:30am W 4 5 - - - - 10 - - 10.9 1017.9 0.0
19/04:00am W 4 5 - - - - 10 - - 11.0 1017.8 0.0
19/03:30am WNW 4 5 - - - - 10 Partly cloudy - 11.5 1017.9 0.0
19/03:00am WNW 6 7 - - - - 10 - - 11.9 1018.0 0.0
19/02:30am WNW 5 6 - - - - 10 Partly cloudy - 11.9 1018.2 0.0
19/02:00am WNW 6 6 - - - - 10 Partly cloudy - 12.0 1018.6 0.0
19/01:30am WSW 5 6 - - - - 10 Partly cloudy - 12.0 1018.6 0.0
19/01:00am WSW 3 4 - - - - 10 Partly cloudy - 12.2 1018.8 0.0
19/12:30am WSW 3 4 - - - - 10 Partly cloudy - 12.4 1019.3 0.0
19/12:00am WSW 4 5 - - - - 10 Partly cloudy - 12.4 1019.6 0.0
 
Date/Time
EST
Wind Sea
Height
m
Swell Vis
km
Cloud Weather Temp
°C
Press
hPa
Rain since
9am
mm
Dir  Spd
kts
Gust
kts
Height
m
Period
s
Dir
18/11:30pm W 5 6 - - - - 10 Partly cloudy - 12.6 1019.5 0.0
18/11:00pm WNW 3 5 - - - - 10 Partly cloudy - 12.5 1019.6 0.0
18/10:30pm W 6 7 - - - - 10 Partly cloudy - 12.9 1019.8 0.0
18/10:00pm WNW 5 6 - - - - 10 Partly cloudy - 13.8 1019.9 0.0
18/09:30pm W 4 6 - - - - 10 - - 14.2 1020.0 0.0
18/09:00pm NE 7 10 - - - - 10 - - 18.1 1019.9 0.0
18/08:30pm NE 8 12 - - - - 10 Partly cloudy - 18.6 1019.8 0.0
18/08:00pm NE 8 11 - - - - 10 - - 18.7 1019.8 0.0
18/07:30pm NE 9 11 - - - - 10 - - 18.7 1019.6 0.0
18/07:00pm ENE 9 11 - - - - 10 - - 19.1 1019.4 0.0
18/06:30pm ENE 9 11 - - - - 10 - - 19.0 1019.1 0.0
18/06:00pm ENE 9 11 - - - - 10 - - 19.0 1019.1 0.0
18/05:30pm ENE 10 14 - - - - 10 - - 19.3 1018.9 0.0
18/05:00pm ENE 9 12 - - - - 10 - - 20.0 1018.9 0.0

Other Formats:

Comma delimited format used in spreadsheet applications
http://www.bom.gov.au/fwo/IDQ60701/IDQ60701.94569.axf

JavaScript Object Notation format (JSON) in row-major order
http://www.bom.gov.au/fwo/IDQ60701/IDQ60701.94569.json